KMFI/MFI METAR and TAF weather

Enter ICAO airport designator
Station Type Date Time Source
KMFI METAR 2021/03/08 11:54 UTC NOAA

KMFI 081154Z AUTO 29007KT 10SM CLR 02/M01 A3012 RMK AO2 SLP211 T00221006 10039 20017 53013


Station Type Date Time Source
KMFI Decoded METAR 2021/03/08 11:54 UTC NOAA

MARSHFIELD MUNICIPAL AIRPORT, WI, United States (KMFI) 44-38N 90-11W 379M
Mar 08, 2021 - 06:54 AM EST / 2021.03.08 1154 UTC
Wind: from the WNW (290 degrees) at 8 MPH (7 KT):0
Visibility: 10 mile(s):0
Sky conditions: clear
Temperature: 36.0 F (2.2 C)
Dew Point: 30.9 F (-0.6 C)
Relative Humidity: 81%
Pressure (altimeter): 30.12 in. Hg (1019 hPa)
Pressure tendency: 0.04 inches (1.3 hPa) higher than three hours ago
ob: KMFI 081154Z AUTO 29007KT 10SM CLR 02/M01 A3012 RMK AO2 SLP211 T00221006 10039 20017 53013
cycle: 12

Station Type Date Time Source
KMFI TAF UTC NOAA

Error!

Example: see airport list